KDAY/DAY METAR and TAF weather

Enter ICAO airport designator
Station Type Date Time Source
KDAY METAR 2023/12/02 04:56 UTC NOAA

KDAY 020456Z 21008KT 6SM BR BKN006 OVC011 11/09 A2987 RMK AO2 RAB00E31 SLP117 P0002 T01110094 401170061


Station Type Date Time Source
KDAY Decoded METAR 2023/12/02 04:56 UTC NOAA

COX DAYTON INTERNATIONAL, OH, United States (KDAY) 39-54N 084-13W 305M
Dec 01, 2023 - 11:56 PM EST / 2023.12.02 0456 UTC
Wind: from the SSW (210 degrees) at 9 MPH (8 KT):0
Visibility: 6 mile(s):0
Sky conditions: overcast
Weather: mist
Precipitation last hour: 0.02 inches
Temperature: 52.0 F (11.1 C)
Dew Point: 48.9 F (9.4 C)
Relative Humidity: 89%
Pressure (altimeter): 29.87 in. Hg (1011 hPa)
ob: KDAY 020456Z 21008KT 6SM BR BKN006 OVC011 11/09 A2987 RMK AO2 RAB00E31 SLP117 P0002 T01110094 401170061
cycle: 5

Station Type Date Time Source
KDAY TAF 2023/12/01 18:42 UTC NOAA

TAF KDAY 011739Z 0118/0218 17012G20KT 2SM BR VCSH OVC004
FM012300 19010KT 2SM BR VCSH OVC005
FM020600 22010KT P6SM VCSH OVC012

Example: see airport list